Latest Coastal Weather Observations for Cape Otway

IDV60701

Issued at 3:42 am EDT Thursday 19 October 2017 (issued every 10 minutes, with the page automatically refreshed every 10 minutes)

About coastal observations | Map of coastal stations | Coastal observations for VIC | Marine services | Other Formats
Station Details ID: 090015 Name: CAPE OTWAY LIGHTHOUSE Lat: -38.86 Lon: 143.51 Height: 82.0 m
Data from the previous 72 hours. | See also: Recent months at Cape Otway
Date/Time
EDT
Temp
°C
Wind Pressure Rain since
9am
mm
Weather Cloud Vis
km
Sea
Height
m
Swell
Dir  Spd
kts
Gust
kts
hPa Trend Height
m
Period
s
Dir
19/03:30am 21.8 WNW 19 29 1012.8 - 0.0 - - - - - - -
19/03:00am 24.3 N 19 31 1011.3 - 0.0 - - - - - - -
19/02:31am 24.5 N 19 30 1011.6 - 0.0 - - - - - - -
19/02:30am 24.5 N 19 28 1011.6 - 0.0 - - - - - - -
19/02:00am 25.0 N 21 37 1011.9 - 0.0 - - - - - - -
19/01:30am 25.3 N 18 29 1012.2 - 0.0 - - - - - - -
19/01:00am 25.9 N 20 30 1012.7 - 0.0 - - - - - - -
19/12:30am 25.7 N 17 27 1013.3 - 0.0 - - - - - - -
19/12:02am 26.1 NNE 16 27 1013.6 - 0.0 - - - - - - -
19/12:00am 26.1 NNE 16 24 1013.6 - 0.0 - - - - - - -
 
Date/Time
EDT
Temp
°C
Wind Pressure Rain since
9am
mm
Weather Cloud Vis
km
Sea
Height
m
Swell
Dir  Spd
kts
Gust
kts
hPa Trend Height
m
Period
s
Dir
18/11:42pm 26.0 NNE 15 25 1013.7 - 0.0 - - - - - - -
18/11:30pm 26.3 NNE 16 24 1014.0 - 0.0 - - - - - - -
18/11:00pm 26.5 NNE 16 26 1014.2 - 0.0 - - - - - - -
18/10:58pm 26.5 NNE 16 26 1014.3 - 0.0 - - - - - - -
18/10:30pm 26.4 NNE 13 22 1014.8 - 0.0 - - - - - - -
18/10:00pm 25.9 NNE 12 19 1015.0 - 0.0 - - - - - - -
18/09:30pm 25.8 NNE 11 16 1015.4 - 0.0 - - - - - - -
18/09:00pm 26.1 NE 9 13 1015.5 - 0.0 - - - - - - -
18/08:30pm 26.2 NE 9 12 1015.4 - 0.0 - - - - - - -
18/08:00pm 26.1 NE 9 11 1015.3 - 0.0 - - - - - - -
18/07:30pm 26.9 NNE 7 9 1015.3 - 0.0 - - - - - - -
18/07:00pm 28.2 N 8 12 1015.3 - 0.0 - - - - - - -
18/06:30pm 29.3 N 7 15 1015.2 - 0.0 - - - - - - -
18/06:00pm 29.8 NNW 9 14 1015.3 - 0.0 - - - - - - -
18/05:30pm 30.3 N 6 13 1015.2 - 0.0 - - - - - - -
18/05:00pm 30.3 N 11 16 1015.2 - 0.0 - - - - - - -
18/04:30pm 30.5 NNW 9 13 1015.3 - 0.0 - - - - - - -
18/04:00pm 31.1 NNW 12 20 1015.6 - 0.0 - - - - - - -
18/03:30pm 31.4 NNW 11 17 1015.9 - 0.0 - - - - - - -
18/03:00pm 31.0 NNW 13 20 1016.4 - 0.0 - - - - - - -
18/02:30pm 31.0 NNW 13 20 1016.8 - 0.0 - - - - - - -
18/02:00pm 31.1 NNW 14 21 1017.2 - 0.0 - - - - - - -
18/01:30pm 30.7 N 13 20 1017.5 - 0.0 - - - - - - -
18/01:00pm 30.2 N 15 23 1017.7 - 0.0 - - - - - - -
18/12:30pm 29.4 NNW 13 20 1018.2 - 0.0 - - - - - - -
18/12:00pm 29.3 NNW 13 19 1018.6 - 0.0 - - - - - - -
18/11:30am 28.2 N 15 24 1018.9 - 0.0 - - - - - - -
18/11:00am 27.6 N 15 21 1019.1 - 0.0 - - - - - - -
18/10:30am 26.8 N 16 24 1019.3 - 0.0 - - - - - - -
18/10:00am 26.4 N 16 23 1019.1 - 0.0 - - - - - - -
18/09:30am 25.8 N 18 25 1019.2 - 0.0 - - - - - - -
18/09:00am 25.0 N 19 26 1019.3 - 0.0 - - - - - - -
18/08:30am 24.3 N 18 27 1019.3 - - - - - - - - -
18/08:03am 23.7 N 18 28 1019.2 - - - - - - - - -
18/08:00am 23.8 N 19 28 1019.1 - - - - - - - - -
18/07:30am 23.5 N 18 24 1018.9 - - - - - - - - -
18/07:00am 23.1 N 17 26 1018.5 - - - - - - - - -
18/06:30am 23.1 N 16 27 1018.3 - - - - - - - - -
18/06:07am 22.8 N 15 25 1018.1 - - - - - - - - -
18/06:00am 23.0 N 16 22 1018.1 - - - - - - - - -
18/05:30am 23.0 N 16 23 1018.0 - - - - - - - - -
18/05:00am 23.1 N 15 21 1018.2 - - - - - - - - -
18/04:30am 22.7 N 15 21 1018.3 - - - - - - - - -
18/04:00am 22.9 N 15 21 1018.4 - - - - - - - - -
18/03:30am 22.4 N 14 18 1018.5 - - - - - - - - -
18/03:00am 22.4 N 13 18 1018.7 - 0.0 - - - - - - -
18/02:30am 22.5 N 13 17 1019.1 - - - - - - - - -
18/02:00am 22.4 NNE 12 15 1019.1 - - - - - - - - -
18/01:30am 23.0 NNE 12 15 1019.5 - - - - - - - - -
18/01:00am 23.6 NNE 12 17 1019.7 - - - - - - - - -
18/12:30am 23.1 NNE 11 13 1019.8 - - - - - - - - -
18/12:00am 23.6 NNE 11 14 1019.9 - - - - - - - - -
 
Date/Time
EDT
Temp
°C
Wind Pressure Rain since
9am
mm
Weather Cloud Vis
km
Sea
Height
m
Swell
Dir  Spd
kts
Gust
kts
hPa Trend Height
m
Period
s
Dir
17/11:30pm 23.6 NNE 12 17 1020.0 - - - - - - - - -
17/11:00pm 23.1 NNE 11 15 1020.3 - - - - - - - - -
17/10:30pm 22.4 NE 13 16 1020.4 - - - - - - - - -
17/10:00pm 23.0 NE 12 14 1020.7 - - - - - - - - -
17/09:30pm 23.3 NE 11 12 1020.7 - - - - - - - - -
17/09:00pm 23.2 NE 10 12 1020.7 - - - - - - - - -
17/08:30pm 23.1 NE 8 9 1020.5 - - - - - - - - -
17/08:00pm 23.7 NNE 7 8 1020.5 - - - - - - - - -
17/07:30pm 22.9 NNW 4 5 1020.3 - - - - - - - - -
17/07:00pm 26.3 W 2 5 1020.0 - - - - - - - - -
17/06:30pm 27.1 NE 3 6 1019.6 - - - - - - - - -
17/06:00pm 25.4 E 4 5 1019.4 - - - - - - - - -
17/05:30pm 26.5 ENE 7 10 1019.4 - - - - - - - - -
17/05:00pm 25.3 E 6 9 1019.5 - - - - - - - - -
17/04:30pm 25.1 E 5 7 1019.7 - - - - - - - - -
17/04:00pm 25.8 ESE 6 8 1019.8 - - - - - - - - -
17/03:30pm 25.6 ESE 5 6 1020.1 - - - - - - - - -
17/03:00pm 25.2 ESE 5 6 1020.3 - - - - - - - - -
17/11:30am 27.6 N 11 18 1021.2 - 0.0 - - - - - - -
17/11:00am 26.8 N 13 20 1021.4 - 0.0 - - - - - - -
17/10:30am 25.9 N 14 21 1021.3 - 0.0 - - - - - - -
17/10:00am 25.4 N 15 22 1021.3 - 0.0 - - - - - - -
17/09:40am 24.9 N 15 26 1021.2 - 0.0 - - - - - - -
17/09:30am 24.7 N 16 24 1021.2 - 0.0 - - - - - - -
17/09:00am 23.8 N 15 23 1021.0 - 0.0 - - - - - - -
17/08:30am 22.9 N 15 22 1021.0 - 0.0 - - - - - - -
17/08:00am 22.2 N 15 21 1020.9 - 0.0 - - - - - - -
17/07:30am 21.8 N 14 20 1020.8 - 0.0 - - - - - - -
17/07:00am 21.5 N 15 20 1020.6 - 0.0 - - - - - - -
17/06:30am 21.0 N 14 19 1020.2 - 0.0 - - - - - - -
17/06:00am 20.8 N 14 19 1020.1 - 0.0 - - - - - - -
17/05:30am 21.1 N 14 21 1019.8 - 0.0 - - - - - - -
17/05:00am 21.3 N 13 18 1019.8 - 0.0 - - - - - - -
17/04:30am 21.2 N 12 19 1019.9 - 0.0 - - - - - - -
17/04:00am 18.4 NNE 11 13 1019.9 - 0.0 - - - - - - -
17/03:30am 19.4 NE 11 14 1020.3 - 0.0 - - - - - - -
17/03:00am 19.6 NE 13 16 1020.5 - 0.0 - - - - - - -
17/02:30am 19.2 NE 13 17 1020.8 - 0.0 - - - - - - -
17/02:00am 19.0 NE 14 19 1021.0 - 0.0 - - - - - - -
17/01:30am 19.3 NE 16 21 1021.5 - 0.0 - - - - - - -
17/01:00am 18.6 NE 16 20 1021.8 - 0.0 - - - - - - -
17/12:30am 17.4 NE 16 21 1022.3 - 0.0 - - - - - - -
17/12:00am 16.4 NE 17 21 1022.4 - 0.0 - - - - - - -
 
Date/Time
EDT
Temp
°C
Wind Pressure Rain since
9am
mm
Weather Cloud Vis
km
Sea
Height
m
Swell
Dir  Spd
kts
Gust
kts
hPa Trend Height
m
Period
s
Dir
16/11:30pm 15.3 NE 17 23 1022.5 - 0.0 - - - - - - -
16/11:00pm 14.5 ENE 13 18 1022.7 - 0.0 - - - - - - -
16/10:30pm 14.2 ENE 12 16 1022.9 - 0.0 - - - - - - -
16/10:00pm 14.4 ENE 12 15 1022.9 - 0.0 - - - - - - -
16/09:30pm 15.6 ENE 13 16 1022.8 - 0.0 - - - - - - -
16/09:00pm 15.6 NE 14 17 1022.7 - 0.0 - - - - - - -
16/08:30pm 16.0 NE 13 16 1022.4 - 0.0 - - - - - - -
16/08:00pm 16.8 NE 11 14 1022.4 - 0.0 - - - - - - -
16/07:30pm 16.3 NE 9 12 1022.3 - 0.0 - - - - - - -
16/07:00pm 15.7 NE 9 13 1022.2 - 0.0 - - - - - - -
16/06:30pm 15.7 ENE 8 11 1022.3 - 0.0 - - - - - - -
16/06:00pm 15.8 ENE 10 13 1022.2 - 0.0 - - - - - - -
16/05:30pm 15.8 ENE 11 14 1022.1 - 0.0 - - - - - - -
16/05:00pm 15.9 ENE 12 15 1022.2 - 0.0 - - - - - - -
16/04:30pm 15.5 ENE 9 13 1022.3 - 0.0 - - - - - - -
16/04:00pm 15.6 ENE 11 15 1022.4 - 0.0 - - - - - - -
16/03:30pm 15.9 ENE 10 13 1022.5 - 0.0 - - - - - - -
16/03:00pm 15.5 ENE 11 14 1022.7 - 0.0 - - - - - - -
16/02:30pm 15.3 ENE 11 14 1023.1 - 0.0 - - - - - - -
16/02:00pm 15.2 E 10 14 1023.3 - 0.0 - - - - - - -
16/01:30pm 14.7 E 10 14 1023.5 - 0.0 - - - - - - -
16/01:00pm 14.8 E 10 16 1023.8 - 0.0 - - - - - - -
16/12:30pm 14.4 ENE 9 15 1024.0 - 0.0 - - - - - - -
16/12:00pm 14.7 E 9 15 1024.2 - 0.0 - - - - - - -
16/11:30am 15.0 ENE 11 16 1024.5 - 0.0 - - - - - - -
16/11:00am 14.8 ENE 12 15 1024.5 - 0.0 - - - - - - -
16/10:30am 14.2 ENE 11 15 1024.8 - 0.0 - - - - - - -
16/10:00am 13.0 ENE 14 20 1024.8 - 0.0 - - - - - - -
16/09:30am 12.4 ENE 13 17 1024.9 - 0.0 - - - - - - -
16/09:00am 11.7 ENE 11 17 1024.8 - 0.0 - - - - - - -
16/08:30am 11.0 ENE 11 18 1024.8 - 0.0 - - - - - - -
16/08:00am 10.8 ENE 10 17 1024.8 - 0.0 - - - - - - -
16/07:30am 10.6 ENE 10 16 1024.7 - 0.0 - - - - - - -
16/07:00am 10.5 ENE 14 19 1024.2 - 0.0 - - - - - - -
16/06:30am 10.4 ENE 12 16 1024.1 - 0.0 - - - - - - -
16/06:00am 10.6 ENE 13 16 1024.0 - 0.0 - - - - - - -
16/05:30am 10.7 ENE 12 17 1023.8 - 0.0 - - - - - - -
16/05:00am 10.5 ENE 12 17 1023.9 - 0.0 - - - - - - -
16/04:30am 10.5 ENE 8 13 1024.1 - 0.0 - - - - - - -
16/04:00am 10.6 ENE 7 13 1024.2 - 0.0 - - - - - - -

Other Formats:

Comma delimited format used in spreadsheet applications
http://www.bom.gov.au/fwo/IDV60701/IDV60701.94842.axf

JavaScript Object Notation format (JSON) in row-major order
http://www.bom.gov.au/fwo/IDV60701/IDV60701.94842.json